MetarTest
Metar LSZC 070750Z VRB01KT 9999 SCT055 19/11 Q1024
Taf LSME 061625Z 0617/0723 34005KT 9999 SCT065 BECMG 0700/0703 CAVOK BECMG 0709/0712 33008KT 9999 SCT050 PROB30 TEMPO 0713/0717 32015G25KT PROB30 TEMPO 0715/0717 SHRA SCT040TCU
Metar LSZH 070750Z VRB02KT CAVOK 19/09 Q1024 NOSIG
Taf LSZH 070825Z 0709/0815 28005KT CAVOK TX23/0714Z TN13/0804Z TX23/0815Z BECMG 0710/0713 30014KT 9999 SCT050 PROB30 TEMPO 0712/0717 SHRA BECMG 0717/0719 34005KT BECMG 0807/0810 04007KT
QNH LSZC 1024
Privacy Settings
We use cookies to enhance your experience while using our website. If you are using our Services via a browser you can restrict, block or remove cookies through your web browser settings. We also use content and scripts from third parties that may use tracking technologies. You can selectively provide your consent below to allow such third party embeds. For complete information about the cookies we use, data we collect and how we process them, please check our Privacy Policy
Youtube
Consent to display content from Youtube
Vimeo
Consent to display content from Vimeo
Google Maps
Consent to display content from Google